Time;durP1;ratioP1;P1;durP2;ratioP2;P2;SDS_P1;SDS_P2;PMS_P1;PMS_P2;Temp;Humidity;BMP_temperature;BMP_pressure;BME280_temperature;BME280_humidity;BME280_pressure;Samples;Min_cycle;Max_cycle;Signal;HPM_P1;HPM_P2
2022/01/01 00:01:11;;;;;;;15.23;6.87;;;;;;;9.30;100.00;98562.19;4355468;33;20116;-76
2022/01/01 00:03:38;;;;;;;12.93;6.28;;;;;;;9.08;100.00;98517.38;4354530;33;20101;-76
2022/01/01 00:06:05;;;;;;;10.27;5.40;;;;;;;9.06;100.00;98527.56;4354619;33;20028;-75
2022/01/01 00:08:31;;;;;;;9.73;5.97;;;;;;;9.13;100.00;98540.00;4342597;32;20029;-77
2022/01/01 00:10:58;;;;;;;16.83;8.20;;;;;;;9.32;100.00;98548.50;4356219;32;20070;-77
2022/01/01 00:13:24;;;;;;;7.05;5.07;;;;;;;9.33;100.00;98550.94;4356238;32;20028;-76
2022/01/01 00:15:51;;;;;;;6.72;4.95;;;;;;;9.33;100.00;98582.38;4358531;32;20083;-76
2022/01/01 00:18:18;;;;;;;9.45;4.75;;;;;;;9.07;100.00;98526.50;4356591;32;20385;-76
2022/01/01 00:20:44;;;;;;;6.68;3.83;;;;;;;9.28;100.00;98567.00;4355910;32;20065;-77
2022/01/01 00:23:11;;;;;;;6.55;4.40;;;;;;;9.27;100.00;98568.09;4356304;32;20424;-76
2022/01/01 00:25:37;;;;;;;8.32;4.87;;;;;;;9.28;100.00;98558.94;4345340;32;20039;-77
2022/01/01 00:28:04;;;;;;;5.82;4.65;;;;;;;9.30;100.00;98578.28;4359314;32;20389;-82
2022/01/01 00:30:30;;;;;;;8.32;5.15;;;;;;;9.15;100.00;98538.66;4360287;32;20074;-76
2022/01/01 00:32:57;;;;;;;5.28;4.50;;;;;;;9.08;100.00;98538.06;4378712;32;20114;-76
2022/01/01 00:35:24;;;;;;;7.60;4.62;;;;;;;9.21;100.00;98579.84;4376634;32;20114;-78
2022/01/01 00:37:50;;;;;;;9.43;5.40;;;;;;;9.33;100.00;98577.00;4381597;32;20090;-76
2022/01/01 00:40:19;;;;;;;6.70;5.30;;;;;;;9.15;100.00;98537.84;4378528;32;20119;-74
2022/01/01 00:42:45;;;;;;;15.43;6.68;;;;;;;9.27;100.00;98562.72;4380031;32;20103;-74
2022/01/01 00:45:11;;;;;;;9.82;5.53;;;;;;;9.32;100.00;98586.09;4380118;32;20083;-75
2022/01/01 00:47:38;;;;;;;15.38;7.93;;;;;;;9.36;100.00;98588.03;4361571;32;20050;-76
2022/01/01 00:50:05;;;;;;;11.25;5.20;;;;;;;9.34;100.00;98589.38;4372674;32;20035;-75
2022/01/01 00:52:31;;;;;;;10.25;6.12;;;;;;;9.02;100.00;98561.34;4360327;32;20028;-75
2022/01/01 00:54:58;;;;;;;10.27;6.18;;;;;;;9.33;100.00;98598.50;4373368;32;20085;-75
2022/01/01 00:57:24;;;;;;;9.77;6.07;;;;;;;9.24;100.00;98573.97;4355857;32;20039;-76
2022/01/01 00:59:51;;;;;;;12.20;5.47;;;;;;;9.31;100.00;98601.44;4372478;32;20483;-75
2022/01/01 01:02:18;;;;;;;7.65;5.28;;;;;;;9.32;100.00;98608.44;4370789;32;20031;-75
2022/01/01 01:04:44;;;;;;;10.25;5.35;;;;;;;9.32;100.00;98613.81;4369608;32;20047;-74
2022/01/01 01:07:12;;;;;;;6.97;4.75;;;;;;;9.33;100.00;98614.59;4370073;32;20220;-75
2022/01/01 01:09:39;;;;;;;8.63;5.53;;;;;;;9.18;100.00;98604.50;4371126;32;20200;-75
2022/01/01 01:12:06;;;;;;;9.07;4.93;;;;;;;9.38;100.00;98623.56;4371218;32;20392;-75
2022/01/01 01:14:39;;;;;;;9.68;6.00;;;;;;;9.44;100.00;98633.31;4371501;32;20040;-75
2022/01/01 01:17:08;;;;;;;9.20;5.03;;;;;;;9.47;100.00;98625.78;4372063;32;20039;-74
2022/01/01 01:19:35;;;;;;;7.53;4.65;;;;;;;9.31;100.00;98603.31;4359110;32;20308;-76
2022/01/01 01:22:01;;;;;;;7.30;4.82;;;;;;;9.51;100.00;98637.63;4356499;32;20171;-75
2022/01/01 01:24:29;;;;;;;8.77;5.90;;;;;;;9.43;100.00;98631.66;4357347;32;20466;-75
2022/01/01 01:27:00;;;;;;;7.53;5.50;;;;;;;9.41;100.00;98644.53;4355383;32;20324;-74
2022/01/01 01:29:26;;;;;;;8.50;4.97;;;;;;;9.39;100.00;98635.91;4357513;32;20081;-75
2022/01/01 01:31:53;;;;;;;12.73;4.47;;;;;;;9.40;100.00;98645.59;4355116;32;20070;-75
2022/01/01 01:34:20;;;;;;;7.65;4.32;;;;;;;9.44;100.00;98673.59;4357153;32;20923;-75
2022/01/01 01:36:46;;;;;;;6.78;4.68;;;;;;;9.44;100.00;98662.84;4356447;32;20442;-75
2022/01/01 01:39:13;;;;;;;6.62;4.15;;;;;;;9.23;100.00;98626.06;4355782;32;20073;-75
2022/01/01 01:41:42;;;;;;;6.40;4.22;;;;;;;9.27;100.00;98649.47;4356229;32;20069;-74
2022/01/01 01:44:23;;;;;;;6.90;3.92;;;;;;;9.35;100.00;98650.09;4355036;32;20345;-74
2022/01/01 01:46:50;;;;;;;5.62;4.07;;;;;;;9.42;100.00;98673.03;4356612;32;20121;-74
2022/01/01 01:49:17;;;;;;;10.52;4.70;;;;;;;9.34;100.00;98668.09;4357085;32;20057;-74
2022/01/01 01:51:43;;;;;;;4.72;3.90;;;;;;;9.29;100.00;98657.28;4356561;32;20032;-74
2022/01/01 01:54:13;;;;;;;5.75;4.15;;;;;;;8.92;100.00;98604.19;4354694;32;20047;-75
2022/01/01 01:56:39;;;;;;;6.53;4.12;;;;;;;9.16;100.00;98636.16;4355714;32;20958;-74
2022/01/01 01:59:06;;;;;;;6.93;4.62;;;;;;;9.05;100.00;98613.75;4355298;32;20047;-74
2022/01/01 02:01:33;;;;;;;8.35;4.80;;;;;;;9.20;100.00;98664.16;4355083;32;20027;-74
2022/01/01 02:03:59;;;;;;;7.22;4.35;;;;;;;9.23;100.00;98658.28;4356442;32;20056;-74
2022/01/01 02:06:26;;;;;;;6.90;5.28;;;;;;;9.30;100.00;98669.66;4339560;33;20039;-74
2022/01/01 02:08:54;;;;;;;6.87;4.30;;;;;;;9.26;100.00;98663.16;4356249;32;20106;-74
2022/01/01 02:11:22;;;;;;;8.40;4.47;;;;;;;9.17;100.00;98657.41;4354934;32;20419;-74
2022/01/01 02:14:17;;;;;;;6.12;4.45;;;;;;;9.00;100.00;98643.22;4342439;33;20058;-74
2022/01/01 02:17:17;;;;;;;5.82;4.40;;;;;;;9.15;100.00;98639.94;4355546;32;20960;-74
2022/01/01 02:19:46;;;;;;;5.90;4.28;;;;;;;9.25;100.00;98672.28;4352161;32;20054;-77
2022/01/01 02:22:13;;;;;;;7.15;3.97;;;;;;;9.22;100.00;98675.47;4355403;32;20064;-75
2022/01/01 02:24:39;;;;;;;6.97;4.55;;;;;;;9.22;100.00;98672.78;4354936;32;20035;-75
2022/01/01 02:27:06;;;;;;;6.45;4.75;;;;;;;9.17;100.00;98664.66;4354791;32;20040;-74
2022/01/01 02:29:32;;;;;;;6.05;4.50;;;;;;;9.17;100.00;98653.91;4355043;32;20069;-75
2022/01/01 02:31:59;;;;;;;7.30;4.93;;;;;;;9.21;100.00;98671.16;4353929;32;20349;-75
2022/01/01 02:34:25;;;;;;;8.40;5.45;;;;;;;8.97;100.00;98654.47;4355577;32;20391;-75
2022/01/01 02:36:52;;;;;;;10.43;4.95;;;;;;;9.12;100.00;98675.34;4355591;32;20061;-74
2022/01/01 02:39:21;;;;;;;10.48;5.32;;;;;;;9.12;100.00;98669.97;4355986;32;20039;-75
2022/01/01 02:41:51;;;;;;;8.27;5.10;;;;;;;8.94;100.00;98630.81;4342009;32;20361;-75
2022/01/01 02:44:22;;;;;;;9.25;5.57;;;;;;;9.15;100.00;98674.84;4353380;32;20053;-75
2022/01/01 02:46:48;;;;;;;10.95;5.62;;;;;;;8.92;100.00;98647.16;4355787;32;20035;-75
2022/01/01 02:49:14;;;;;;;8.98;5.30;;;;;;;9.11;100.00;98666.47;4355846;32;20066;-75
2022/01/01 02:51:41;;;;;;;8.85;5.12;;;;;;;9.05;100.00;98678.22;4355682;32;20408;-75
2022/01/01 02:54:08;;;;;;;9.63;5.78;;;;;;;8.99;100.00;98680.00;4355083;32;20187;-75
2022/01/01 02:56:34;;;;;;;7.22;5.25;;;;;;;9.05;100.00;98703.19;4353900;32;20103;-75
2022/01/01 02:59:01;;;;;;;9.07;5.50;;;;;;;8.78;100.00;98652.06;4354703;32;20032;-75
2022/01/01 03:01:27;;;;;;;6.25;4.25;;;;;;;8.95;100.00;98686.94;4355837;32;20106;-75
2022/01/01 03:03:54;;;;;;;7.60;5.18;;;;;;;9.02;100.00;98695.63;4355190;32;20196;-75
2022/01/01 03:06:21;;;;;;;11.35;4.70;;;;;;;9.02;100.00;98703.69;4353951;32;20450;-75
2022/01/01 03:08:51;;;;;;;5.82;4.15;;;;;;;8.97;100.00;98703.63;4342248;32;20069;-75
2022/01/01 03:11:18;;;;;;;6.55;4.72;;;;;;;8.82;100.00;98668.47;4354692;32;20052;-75
2022/01/01 03:13:45;;;;;;;8.50;4.57;;;;;;;9.04;100.00;98709.59;4355607;32;20043;-74
2022/01/01 03:16:12;;;;;;;5.30;4.35;;;;;;;8.75;100.00;98657.13;4341742;32;20063;-75
2022/01/01 03:18:39;;;;;;;8.15;4.53;;;;;;;8.97;100.00;98703.63;4353635;32;20065;-75
2022/01/01 03:21:06;;;;;;;5.90;4.12;;;;;;;9.00;100.00;98699.59;4355356;32;20060;-75
2022/01/01 03:23:33;;;;;;;15.23;4.20;;;;;;;8.91;100.00;98693.84;4342339;33;20036;-75
2022/01/01 03:26:00;;;;;;;3.58;3.12;;;;;;;8.99;100.00;98695.31;4353618;32;20036;-75
2022/01/01 03:28:27;;;;;;;9.60;4.32;;;;;;;8.73;100.00;98660.84;4353830;33;20044;-75
2022/01/01 03:30:54;;;;;;;4.03;3.35;;;;;;;8.91;100.00;98700.03;4354158;32;20028;-75
2022/01/01 03:33:21;;;;;;;4.22;3.20;;;;;;;8.73;100.00;98676.16;4355380;33;20032;-75
2022/01/01 03:35:48;;;;;;;11.80;3.47;;;;;;;8.97;100.00;98708.97;4355403;33;20035;-74
2022/01/01 03:38:16;;;;;;;4.55;2.75;;;;;;;8.74;100.00;98672.41;4353386;33;20062;-74
2022/01/01 03:40:43;;;;;;;4.78;2.83;;;;;;;8.97;100.00;98708.97;4354035;32;20070;-76
2022/01/01 03:43:09;;;;;;;4.18;2.87;;;;;;;8.98;100.00;98725.91;4356082;32;20070;-75
2022/01/01 03:45:39;;;;;;;6.60;3.50;;;;;;;8.95;100.00;98716.47;4357678;32;20028;-76
2022/01/01 03:48:06;;;;;;;3.35;2.72;;;;;;;8.92;100.00;98719.66;4358499;32;20069;-74
2022/01/01 03:50:34;;;;;;;3.90;3.10;;;;;;;8.94;100.00;98746.25;4357542;32;20078;-77
2022/01/01 03:53:06;;;;;;;6.85;3.10;;;;;;;8.71;100.00;98722.03;4358569;32;20074;-75
2022/01/01 03:55:33;;;;;;;7.22;2.97;;;;;;;8.69;100.00;98694.59;4356692;32;20040;-76
2022/01/01 03:57:59;;;;;;;2.53;2.28;;;;;;;8.92;100.00;98762.62;4358161;32;20056;-75
2022/01/01 04:00:26;;;;;;;7.20;3.53;;;;;;;8.91;100.00;98744.88;4355968;32;20052;-75
2022/01/01 04:02:52;;;;;;;4.35;2.92;;;;;;;8.86;100.00;98745.59;4357323;32;20056;-74
2022/01/01 04:05:19;;;;;;;2.83;2.10;;;;;;;8.99;100.00;98733.72;4356619;32;20036;-75
2022/01/01 04:07:46;;;;;;;5.12;3.12;;;;;;;8.86;100.00;98740.22;4358139;32;20023;-76
2022/01/01 04:10:12;;;;;;;5.43;2.92;;;;;;;8.98;100.00;98769.66;4344349;32;20097;-76
2022/01/01 04:12:39;;;;;;;3.33;2.50;;;;;;;8.92;100.00;98776.03;4353499;32;20090;-76
2022/01/01 04:15:06;;;;;;;4.93;3.40;;;;;;;8.87;100.00;98779.47;4357920;32;20060;-76
2022/01/01 04:17:36;;;;;;;3.17;2.65;;;;;;;8.88;100.00;98785.62;4357941;32;20093;-75
2022/01/01 04:20:05;;;;;;;5.50;3.33;;;;;;;8.66;100.00;98735.37;4356524;32;20037;-75
2022/01/01 04:22:32;;;;;;;5.03;2.97;;;;;;;8.86;100.00;98779.69;4355981;32;20067;-75
2022/01/01 04:24:58;;;;;;;4.35;3.22;;;;;;;8.84;100.00;98784.47;4356774;32;20357;-75
2022/01/01 04:27:25;;;;;;;4.57;3.60;;;;;;;8.69;100.00;98753.66;4355285;32;20053;-76
2022/01/01 04:29:52;;;;;;;5.32;3.42;;;;;;;8.84;100.00;98779.94;4358817;32;20113;-75
2022/01/01 04:32:18;;;;;;;3.42;3.03;;;;;;;8.87;100.00;98800.09;4356769;32;20380;-76
2022/01/01 04:34:45;;;;;;;4.15;3.30;;;;;;;8.86;100.00;98782.37;4360039;32;20070;-76
2022/01/01 04:37:13;;;;;;;6.57;3.45;;;;;;;8.87;100.00;98789.37;4346357;32;20276;-75
2022/01/01 04:39:40;;;;;;;5.40;3.28;;;;;;;8.65;100.00;98760.59;4359443;32;20086;-75
2022/01/01 04:42:07;;;;;;;5.40;3.55;;;;;;;8.66;100.00;98742.59;4357649;32;20141;-76
2022/01/01 04:44:40;;;;;;;5.03;3.30;;;;;;;8.71;100.00;98764.97;4358075;32;20062;-76
2022/01/01 04:47:07;;;;;;;5.12;3.67;;;;;;;8.79;100.00;98793.28;4357656;32;20097;-75
2022/01/01 04:49:33;;;;;;;4.12;3.45;;;;;;;8.35;100.00;98716.03;4357438;32;20378;-75
2022/01/01 04:52:00;;;;;;;3.60;2.70;;;;;;;8.59;100.00;98756.19;4357466;32;20054;-76
2022/01/01 04:54:27;;;;;;;5.87;3.12;;;;;;;8.48;100.00;98754.38;4356916;32;20065;-75
2022/01/01 04:56:53;;;;;;;3.20;2.80;;;;;;;8.78;100.00;98801.59;4340890;33;20329;-75
2022/01/01 04:59:19;;;;;;;6.82;3.12;;;;;;;8.51;100.00;98770.81;4357808;32;20064;-76
2022/01/01 05:01:46;;;;;;;3.10;2.78;;;;;;;8.51;100.00;98759.28;4344292;32;20368;-75
2022/01/01 05:04:13;;;;;;;3.28;2.40;;;;;;;8.62;100.00;98813.94;4356374;32;20171;-75
2022/01/01 05:06:41;;;;;;;3.53;2.22;;;;;;;8.38;100.00;98776.47;4357523;32;20036;-77
2022/01/01 05:09:09;;;;;;;3.83;2.47;;;;;;;8.64;100.00;98818.00;4353890;32;20070;-75
2022/01/01 05:11:35;;;;;;;3.60;2.25;;;;;;;8.50;100.00;98796.03;4343102;32;20175;-75
2022/01/01 05:14:02;;;;;;;5.95;2.30;;;;;;;8.61;100.00;98823.03;4357497;32;20087;-75
2022/01/01 05:16:29;;;;;;;6.82;2.70;;;;;;;8.38;100.00;98792.56;4343867;32;20043;-76
2022/01/01 05:18:56;;;;;;;4.07;2.22;;;;;;;8.37;100.00;98775.63;4342699;33;20036;-76
2022/01/01 05:21:22;;;;;;;4.30;2.58;;;;;;;8.39;100.00;98796.03;4354614;32;20054;-76
2022/01/01 05:23:49;;;;;;;4.20;2.70;;;;;;;8.36;100.00;98800.84;4356260;32;20060;-76
2022/01/01 05:26:16;;;;;;;2.55;2.35;;;;;;;8.54;100.00;98839.28;4355095;32;20061;-76
2022/01/01 05:28:44;;;;;;;5.37;2.90;;;;;;;8.52;100.00;98839.53;4355216;32;20083;-76
2022/01/01 05:31:11;;;;;;;2.97;2.70;;;;;;;8.61;100.00;98850.69;4355014;32;20040;-76
2022/01/01 05:33:37;;;;;;;6.30;3.00;;;;;;;8.61;100.00;98842.63;4356069;32;20364;-75
2022/01/01 05:36:04;;;;;;;3.92;2.70;;;;;;;8.43;100.00;98810.63;4355972;32;20031;-76
2022/01/01 05:38:31;;;;;;;6.22;3.70;;;;;;;8.60;100.00;98846.38;4357045;32;20144;-75
2022/01/01 05:40:57;;;;;;;4.78;3.03;;;;;;;8.62;100.00;98863.06;4355166;32;20044;-76
2022/01/01 05:43:24;;;;;;;3.72;3.17;;;;;;;8.39;100.00;98812.94;4355358;32;20043;-75
2022/01/01 05:45:51;;;;;;;3.47;3.08;;;;;;;8.34;100.00;98811.00;4355817;32;20036;-76
2022/01/01 05:48:17;;;;;;;3.22;2.45;;;;;;;8.50;100.00;98838.12;4356532;32;20066;-76
2022/01/01 05:50:43;;;;;;;5.05;2.83;;;;;;;8.54;100.00;98845.47;4355444;32;20032;-76
2022/01/01 05:53:10;;;;;;;4.60;2.90;;;;;;;8.51;100.00;98845.94;4356327;32;20069;-76
2022/01/01 05:55:37;;;;;;;3.17;2.72;;;;;;;8.43;100.00;98832.94;4354502;32;20091;-76
2022/01/01 05:58:05;;;;;;;2.60;2.40;;;;;;;8.56;100.00;98852.47;4354263;32;20048;-75
2022/01/01 06:00:33;;;;;;;4.07;2.65;;;;;;;8.64;100.00;98866.31;4356475;32;20087;-76
2022/01/01 06:03:00;;;;;;;3.45;3.00;;;;;;;8.40;100.00;98828.00;4342532;33;20062;-76
2022/01/01 06:05:27;;;;;;;3.08;2.75;;;;;;;8.59;100.00;98868.91;4354204;32;20069;-76
2022/01/01 06:07:55;;;;;;;3.20;2.60;;;;;;;8.35;100.00;98831.41;4355904;32;20073;-76
2022/01/01 06:10:22;;;;;;;2.83;2.25;;;;;;;8.36;100.00;98841.09;4354124;32;20065;-75
2022/01/01 06:12:49;;;;;;;2.87;2.50;;;;;;;8.51;100.00;98872.78;4355877;32;20430;-75
2022/01/01 06:15:16;;;;;;;2.85;2.65;;;;;;;8.40;100.00;98864.75;4356281;32;20171;-76
2022/01/01 06:17:43;;;;;;;2.62;2.40;;;;;;;8.64;100.00;98884.28;4355044;32;20074;-76
2022/01/01 06:20:10;;;;;;;2.90;2.55;;;;;;;8.39;100.00;98852.38;4355648;32;20048;-76
2022/01/01 06:22:37;;;;;;;2.42;2.22;;;;;;;8.59;100.00;98889.56;4342818;32;20058;-75
2022/01/01 06:25:05;;;;;;;4.87;2.15;;;;;;;8.56;100.00;98880.13;4356093;32;20334;-75
2022/01/01 06:27:32;;;;;;;3.33;2.50;;;;;;;8.36;100.00;98859.06;4354470;32;20043;-76
2022/01/01 06:29:58;;;;;;;4.20;2.45;;;;;;;8.43;100.00;98870.47;4338789;33;20048;-76
2022/01/01 06:32:25;;;;;;;2.95;2.33;;;;;;;8.51;100.00;98894.25;4355010;32;20086;-75
2022/01/01 06:34:51;;;;;;;4.00;2.37;;;;;;;8.52;100.00;98900.41;4356052;32;20075;-76
2022/01/01 06:37:18;;;;;;;3.28;2.50;;;;;;;8.45;100.00;98900.56;4354099;32;20066;-76
2022/01/01 06:39:44;;;;;;;2.40;2.00;;;;;;;8.34;100.00;98871.88;4352978;32;20054;-76
2022/01/01 06:42:11;;;;;;;2.33;2.15;;;;;;;8.55;100.00;98910.69;4341794;32;20044;-75
2022/01/01 06:44:39;;;;;;;2.28;2.08;;;;;;;8.48;100.00;98899.28;4357356;32;20399;-76
2022/01/01 06:47:09;;;;;;;5.90;1.98;;;;;;;8.47;100.00;98900.31;4355687;32;20047;-76
2022/01/01 06:49:36;;;;;;;3.00;2.25;;;;;;;7.94;100.00;98830.59;4354160;32;20036;-77
2022/01/01 06:52:03;;;;;;;4.47;2.17;;;;;;;8.51;100.00;98918.41;4340127;32;20373;-76
2022/01/01 06:54:37;;;;;;;1.98;1.87;;;;;;;8.51;100.00;98921.09;4355633;32;20360;-76
2022/01/01 06:57:04;;;;;;;2.75;2.35;;;;;;;8.53;100.00;98924.34;4355513;32;20039;-77
2022/01/01 06:59:31;;;;;;;2.55;2.40;;;;;;;8.24;100.00;98883.22;4354029;32;20044;-76
2022/01/01 07:01:58;;;;;;;3.78;2.35;;;;;;;8.22;100.00;98885.34;4354628;32;20081;-77
2022/01/01 07:04:31;;;;;;;4.87;2.70;;;;;;;8.45;100.00;98921.22;4356312;32;20051;-77
2022/01/01 07:07:09;;;;;;;2.65;2.45;;;;;;;8.48;100.00;98910.81;4354314;32;20044;-76
2022/01/01 07:09:40;;;;;;;3.05;2.67;;;;;;;8.49;100.00;98933.94;4354739;32;20069;-76
2022/01/01 07:12:07;;;;;;;2.90;2.70;;;;;;;8.47;100.00;98928.00;4354131;32;20153;-76
2022/01/01 07:14:33;;;;;;;5.47;2.67;;;;;;;8.28;100.00;98911.22;4355475;32;20443;-76
2022/01/01 07:17:00;;;;;;;3.20;2.90;;;;;;;8.33;100.00;98918.56;4354553;32;20363;-75
2022/01/01 07:19:26;;;;;;;6.90;2.70;;;;;;;8.51;100.00;98941.75;4357452;32;20463;-75
2022/01/01 07:22:00;;;;;;;3.55;2.53;;;;;;;8.31;100.00;98910.75;4363343;32;20083;-74
2022/01/01 07:24:27;;;;;;;3.53;3.22;;;;;;;8.45;100.00;98940.00;4367047;32;20039;-75
2022/01/01 07:26:53;;;;;;;4.00;3.62;;;;;;;8.35;100.00;98927.19;4364838;32;20186;-74
2022/01/01 07:29:19;;;;;;;5.80;4.55;;;;;;;8.57;100.00;98962.25;4369776;32;20057;-75
2022/01/01 07:31:46;;;;;;;4.82;3.92;;;;;;;8.44;100.00;98951.78;4366770;32;20167;-74
2022/01/01 07:34:13;;;;;;;7.40;4.30;;;;;;;8.55;100.00;98964.34;4366620;32;20035;-75
2022/01/01 07:36:39;;;;;;;3.83;3.47;;;;;;;8.37;100.00;98941.97;4369036;32;20031;-75
2022/01/01 07:39:06;;;;;;;5.97;3.83;;;;;;;8.37;100.00;98933.91;4369258;32;20039;-76
2022/01/01 07:41:32;;;;;;;6.72;4.30;;;;;;;8.57;100.00;98964.94;4367243;32;20093;-76
2022/01/01 07:43:59;;;;;;;5.47;3.72;;;;;;;8.59;100.00;98975.44;4370438;32;20047;-76
2022/01/01 07:46:25;;;;;;;6.00;3.50;;;;;;;8.62;100.00;98981.16;4366909;32;20437;-76
2022/01/01 07:48:52;;;;;;;4.25;3.03;;;;;;;8.52;100.00;98970.19;4354644;33;20060;-75
2022/01/01 07:51:18;;;;;;;3.80;3.28;;;;;;;8.61;100.00;98978.69;4354148;32;20035;-76
2022/01/01 07:53:45;;;;;;;3.50;2.75;;;;;;;8.60;100.00;98980.59;4339762;33;20382;-76
2022/01/01 07:56:11;;;;;;;3.05;2.85;;;;;;;8.66;100.00;99003.78;4354024;33;20401;-76
2022/01/01 07:58:38;;;;;;;4.12;3.35;;;;;;;8.58;100.00;98985.34;4353863;33;20054;-76
2022/01/01 08:01:05;;;;;;;4.05;3.62;;;;;;;8.44;100.00;98965.19;4354635;33;20051;-76
2022/01/01 08:03:31;;;;;;;4.05;3.30;;;;;;;8.66;100.00;98993.06;4340215;33;20086;-77
2022/01/01 08:05:58;;;;;;;5.60;2.85;;;;;;;8.52;100.00;98970.19;4352493;33;20054;-76
2022/01/01 08:08:24;;;;;;;5.50;3.78;;;;;;;8.43;100.00;98959.03;4354102;33;20077;-76
2022/01/01 08:10:51;;;;;;;3.50;3.20;;;;;;;8.63;100.00;98996.22;4354825;33;20036;-75
2022/01/01 08:13:25;;;;;;;7.22;2.53;;;;;;;8.60;100.00;98994.00;4353294;33;20053;-76
2022/01/01 08:15:53;;;;;;;6.35;3.03;;;;;;;8.60;100.00;99006.59;4351204;33;20061;-76
2022/01/01 08:18:20;;;;;;;4.28;3.87;;;;;;;8.64;100.00;99005.06;4354703;32;20405;-82
2022/01/01 08:20:48;;;;;;;3.17;2.83;;;;;;;8.62;100.00;98999.12;4353831;33;20040;-77
2022/01/01 08:23:15;;;;;;;3.60;2.55;;;;;;;8.36;100.00;98961.81;4347584;32;20081;-76
2022/01/01 08:25:41;;;;;;;3.08;2.78;;;;;;;8.60;100.00;99004.72;4367598;32;20028;-77
2022/01/01 08:28:09;;;;;;;3.05;2.00;;;;;;;8.36;100.00;98964.50;4359768;32;20057;-74
2022/01/01 08:30:36;;;;;;;2.45;2.22;;;;;;;8.42;100.00;98975.34;4371131;32;20085;-74
2022/01/01 08:33:03;;;;;;;2.78;2.33;;;;;;;8.32;100.00;98957.97;4370142;32;20051;-74
2022/01/01 08:35:32;;;;;;;6.25;2.85;;;;;;;8.35;100.00;98976.28;4372027;32;20065;-73
2022/01/01 08:38:00;;;;;;;4.53;2.58;;;;;;;8.60;100.00;99020.84;4370152;32;20047;-74
2022/01/01 08:40:27;;;;;;;2.67;2.47;;;;;;;8.39;100.00;98986.53;4371328;32;20183;-75
2022/01/01 08:42:54;;;;;;;1.95;1.58;;;;;;;8.61;100.00;99038.56;4372107;32;20092;-73
2022/01/01 08:45:21;;;;;;;5.22;2.33;;;;;;;8.52;100.00;99013.13;4372554;32;20351;-73
2022/01/01 08:47:48;;;;;;;3.80;2.45;;;;;;;8.57;100.00;99020.47;4359004;32;20028;-74
2022/01/01 08:50:15;;;;;;;2.67;1.80;;;;;;;8.60;100.00;99028.88;4371201;32;20062;-74
2022/01/01 08:52:43;;;;;;;4.25;2.20;;;;;;;8.33;100.00;98999.84;4370826;32;20047;-74
2022/01/01 08:55:10;;;;;;;5.10;2.60;;;;;;;8.51;100.00;99043.72;4371926;32;20061;-75
2022/01/01 08:57:36;;;;;;;2.28;2.05;;;;;;;8.51;100.00;99033.78;4371985;32;20032;-73
2022/01/01 09:00:07;;;;;;;5.07;2.35;;;;;;;8.48;100.00;99036.94;4372403;32;20247;-74
2022/01/01 09:02:34;;;;;;;2.08;1.60;;;;;;;8.52;100.00;99056.06;4371845;32;20130;-74
2022/01/01 09:05:01;;;;;;;4.80;1.62;;;;;;;8.49;100.00;99062.75;4372193;32;20371;-74
2022/01/01 09:07:29;;;;;;;3.10;1.83;;;;;;;8.34;100.00;99039.06;4370147;32;20400;-73
2022/01/01 09:10:00;;;;;;;6.30;2.30;;;;;;;8.49;100.00;99048.50;4365005;32;20043;-74
2022/01/01 09:12:28;;;;;;;2.25;2.00;;;;;;;8.53;100.00;99052.34;4360837;32;20035;-71
2022/01/01 09:14:56;;;;;;;6.35;2.15;;;;;;;8.27;100.00;99008.84;4370772;32;20336;-74
2022/01/01 09:17:22;;;;;;;4.30;2.53;;;;;;;8.57;100.00;99053.50;4367884;32;20036;-74
2022/01/01 09:19:49;;;;;;;1.67;1.50;;;;;;;7.94;100.00;98942.41;4370651;32;20070;-74
2022/01/01 09:24:51;;;;;;;2.30;1.73;;;;;;;8.58;100.00;99043.59;4370801;32;20097;-75
2022/01/01 09:27:18;;;;;;;1.77;1.62;;;;;;;8.42;100.00;99024.44;4371420;32;20065;-75
2022/01/01 09:29:44;;;;;;;3.15;1.92;;;;;;;8.65;100.00;99052.34;4371967;32;20039;-75
2022/01/01 09:32:11;;;;;;;2.60;1.85;;;;;;;8.43;100.00;99019.91;4371054;32;20158;-75
2022/01/01 09:34:39;;;;;;;2.08;1.98;;;;;;;8.70;100.00;99069.34;4370874;32;20057;-75
2022/01/01 09:37:08;;;;;;;2.95;2.65;;;;;;;8.72;100.00;99067.25;4371476;32;20219;-76
2022/01/01 09:39:35;;;;;;;4.62;3.12;;;;;;;8.59;100.00;99040.66;4357745;32;20049;-74
2022/01/01 09:42:02;;;;;;;2.30;2.10;;;;;;;8.78;100.00;99080.78;4357058;32;20358;-73
2022/01/01 09:44:36;;;;;;;3.53;2.33;;;;;;;8.55;100.00;99034.13;4370962;32;20196;-74
2022/01/01 09:47:08;;;;;;;2.42;2.22;;;;;;;8.72;100.00;99061.88;4365157;32;20081;-74
2022/01/01 09:49:35;;;;;;;3.30;2.17;;;;;;;8.82;100.00;99063.13;4356173;32;20075;-74
2022/01/01 09:52:01;;;;;;;6.35;2.90;;;;;;;8.81;100.00;99064.22;4356729;32;20058;-73
2022/01/01 09:54:30;;;;;;;2.62;2.33;;;;;;;8.86;100.00;99083.09;4355584;32;20073;-74
2022/01/01 09:56:57;;;;;;;8.00;2.53;;;;;;;8.87;100.00;99068.59;4342560;32;20091;-73
2022/01/01 09:59:23;;;;;;;3.10;2.83;;;;;;;8.70;100.00;99047.06;4355482;32;20031;-74
2022/01/01 10:01:50;;;;;;;2.95;2.67;;;;;;;8.86;100.00;99088.47;4357397;32;20705;-74
2022/01/01 10:04:17;;;;;;;6.57;3.42;;;;;;;8.90;100.00;99084.25;4370113;32;20055;-73
2022/01/01 10:07:01;;;;;;;3.17;2.58;;;;;;;8.91;100.00;99083.19;4369067;32;20036;-74
2022/01/01 10:09:36;;;;;;;4.85;2.67;;;;;;;8.98;100.00;99080.38;4371452;32;20459;-73
2022/01/01 10:12:07;;;;;;;5.80;3.67;;;;;;;9.02;100.00;99090.41;4370245;32;20425;-74
2022/01/01 10:14:38;;;;;;;5.05;3.42;;;;;;;8.96;100.00;99098.59;4364171;32;20821;-74
2022/01/01 10:17:14;;;;;;;5.75;3.87;;;;;;;8.98;100.00;99091.12;4365338;32;20396;-75
2022/01/01 10:19:41;;;;;;;7.35;3.83;;;;;;;8.99;100.00;99098.94;4355115;32;20039;-75
2022/01/01 10:22:12;;;;;;;3.40;2.33;;;;;;;8.79;100.00;99071.66;4352876;32;20048;-75
2022/01/01 10:27:45;;;;;;;3.12;2.30;;;;;;;8.97;100.00;99098.38;4355194;32;20061;-74
2022/01/01 10:30:29;;;;;;;2.55;2.20;;;;;;;8.69;100.00;99067.72;4353880;32;20086;-74
2022/01/01 10:32:59;;;;;;;3.85;2.17;;;;;;;8.91;100.00;99091.25;4341598;33;20444;-74
2022/01/01 10:35:26;;;;;;;4.87;2.22;;;;;;;8.97;100.00;99101.06;4353978;32;20035;-75
2022/01/01 10:37:53;;;;;;;8.55;2.87;;;;;;;8.90;100.00;99101.19;4355222;32;20392;-74
2022/01/01 10:40:27;;;;;;;3.75;3.15;;;;;;;8.93;100.00;99120.56;4355230;32;20044;-72
2022/01/01 10:42:54;;;;;;;5.20;3.47;;;;;;;8.94;100.00;99112.28;4355070;32;20040;-73
2022/01/01 10:45:48;;;;;;;5.50;3.50;;;;;;;8.93;100.00;99094.50;4354492;32;20055;-75
2022/01/01 10:48:40;;;;;;;6.70;3.90;;;;;;;8.99;100.00;99101.63;4354613;32;20073;-74
2022/01/01 10:51:10;;;;;;;16.10;3.87;;;;;;;8.97;100.00;99111.00;4355011;32;20059;-74
2022/01/01 10:53:37;;;;;;;8.38;3.42;;;;;;;8.97;100.00;99117.16;4355368;32;20479;-74
2022/01/01 10:56:15;;;;;;;6.00;4.37;;;;;;;8.84;100.00;99094.09;4353868;32;20089;-74
2022/01/01 10:58:43;;;;;;;12.98;4.70;;;;;;;8.99;100.00;99109.69;4354012;32;20069;-74
2022/01/01 11:01:10;;;;;;;7.50;4.32;;;;;;;9.01;100.00;99123.69;4367585;32;20086;-74
2022/01/01 11:03:38;;;;;;;7.72;4.28;;;;;;;9.00;100.00;99132.81;4370508;32;20056;-72
2022/01/01 11:06:08;;;;;;;6.10;3.72;;;;;;;8.79;100.00;99093.16;4383835;32;20048;-74
2022/01/01 11:08:36;;;;;;;4.78;3.37;;;;;;;8.80;100.00;99092.09;4365283;32;20081;-72
2022/01/01 11:11:05;;;;;;;5.80;3.67;;;;;;;8.92;100.00;99119.75;4353852;32;20105;-74
2022/01/01 11:13:33;;;;;;;4.40;3.22;;;;;;;8.80;100.00;99097.47;4355692;32;20457;-73
2022/01/01 11:16:02;;;;;;;7.70;3.92;;;;;;;8.97;100.00;99144.03;4354669;32;20036;-75
2022/01/01 11:18:28;;;;;;;5.43;3.72;;;;;;;9.01;100.00;99131.75;4369150;32;20039;-74
2022/01/01 11:20:56;;;;;;;5.30;3.83;;;;;;;8.70;100.00;99090.03;4366328;32;20459;-74
2022/01/01 11:23:23;;;;;;;7.20;3.95;;;;;;;8.96;100.00;99153.13;4368057;32;20061;-74
2022/01/01 11:25:51;;;;;;;3.67;3.00;;;;;;;8.76;100.00;99136.56;4369579;32;20425;-74
2022/01/01 11:28:21;;;;;;;5.78;3.85;;;;;;;8.99;100.00;99147.28;4367270;32;20040;-75
2022/01/01 11:30:57;;;;;;;4.00;3.45;;;;;;;8.82;100.00;99108.78;4367110;32;20150;-75
2022/01/01 11:33:42;;;;;;;4.55;3.72;;;;;;;9.04;100.00;99168.06;4369122;32;20079;-74
2022/01/01 11:36:38;;;;;;;4.55;3.70;;;;;;;8.84;100.00;99115.56;4368424;32;20358;-74
2022/01/01 11:39:07;;;;;;;3.90;3.55;;;;;;;9.00;100.00;99138.19;4362264;32;20043;-75
2022/01/01 11:41:38;;;;;;;4.50;3.78;;;;;;;8.97;100.00;99144.03;4356174;32;20078;-74